EZY536F EGJJ-EGAC
Flight info
| Callsign | EZY536F |
|---|---|
| Flight time | N/A |
| Altitude | 24000 |
| Route | SKERY L22 EMWIP P16 FIMCA/N0444F360 DCT TOJAQ DCT UNFIT DCT PENWU DCT NICXI DCT VATRY DCT DUB/N0443F350 DCT NEVRI/N0405F250 N34 ABSUN DCT MAGEE |
| Aircraft | A319/M-SDE3FGHIRWY/LB1 |
Departure
| Time | 2026-05-06 14:02 |
|---|---|
| Airport | Jersey Airport (EGJJ) |
Arrival
| Time | N/A |
|---|---|
| Airport | George Best Belfast City Airport (EGAC) |
| Time | Latitude | Longitude | Altitude | Speed | Heading |
|---|---|---|---|---|---|
| 2026-05-06 13:45 | 49.20561 | -2.19636 | 284 ft | 0 kts | 159° |
| 2026-05-06 13:56 | 49.20562 | -2.19637 | 284 ft | 2 kts | 159° |
| 2026-05-06 13:56 | 49.20586 | -2.19651 | 289 ft | 3 kts | 159° |
| 2026-05-06 13:56 | 49.20607 | -2.19663 | 284 ft | 4 kts | 165° |
| 2026-05-06 13:56 | 49.20633 | -2.19669 | 284 ft | 4 kts | 185° |
| 2026-05-06 13:57 | 49.20653 | -2.19662 | 284 ft | 0 kts | 205° |
| 2026-05-06 13:58 | 49.20650 | -2.19664 | 284 ft | 2 kts | 205° |
| 2026-05-06 13:59 | 49.20627 | -2.19685 | 289 ft | 5 kts | 221° |
| 2026-05-06 13:59 | 49.20613 | -2.19753 | 284 ft | 9 kts | 262° |
| 2026-05-06 13:59 | 49.20605 | -2.19860 | 288 ft | 10 kts | 263° |
| 2026-05-06 13:59 | 49.20563 | -2.19933 | 284 ft | 10 kts | 182° |
| 2026-05-06 14:00 | 49.20517 | -2.19972 | 287 ft | 8 kts | 264° |
| 2026-05-06 14:00 | 49.20534 | -2.20072 | 289 ft | 12 kts | 287° |
| 2026-05-06 14:00 | 49.20563 | -2.20215 | 287 ft | 16 kts | 287° |
| 2026-05-06 14:00 | 49.20598 | -2.20398 | 284 ft | 19 kts | 286° |
| 2026-05-06 14:01 | 49.20625 | -2.20592 | 284 ft | 18 kts | 272° |
| 2026-05-06 14:01 | 49.20660 | -2.20712 | 284 ft | 11 kts | 341° |
| 2026-05-06 14:01 | 49.20705 | -2.20672 | 283 ft | 6 kts | 75° |
| 2026-05-06 14:01 | 49.20706 | -2.20662 | 283 ft | 0 kts | 83° |
| 2026-05-06 14:02 | 49.20713 | -2.20577 | 283 ft | 36 kts | 83° |
| 2026-05-06 14:02 | 49.20779 | -2.19793 | 287 ft | 109 kts | 82° |
| 2026-05-06 14:02 | 49.20897 | -2.18394 | 528 ft | 140 kts | 82° |
| 2026-05-06 14:02 | 49.21011 | -2.16940 | 1215 ft | 139 kts | 81° |
| 2026-05-06 14:03 | 49.21134 | -2.15446 | 1795 ft | 149 kts | 82° |
| 2026-05-06 14:03 | 49.21278 | -2.13757 | 2161 ft | 171 kts | 82° |
| 2026-05-06 14:03 | 49.21487 | -2.11842 | 2494 ft | 195 kts | 72° |
| 2026-05-06 14:03 | 49.22134 | -2.09881 | 2847 ft | 220 kts | 52° |
| 2026-05-06 14:04 | 49.23338 | -2.08251 | 3309 ft | 244 kts | 29° |
| 2026-05-06 14:04 | 49.24997 | -2.07464 | 4027 ft | 256 kts | 4° |
| 2026-05-06 14:04 | 49.26762 | -2.07801 | 4798 ft | 265 kts | 339° |
| 2026-05-06 14:04 | 49.28289 | -2.09349 | 5788 ft | 266 kts | 314° |
| 2026-05-06 14:05 | 49.29548 | -2.11453 | 6766 ft | 268 kts | 311° |
| 2026-05-06 14:05 | 49.30800 | -2.13597 | 7689 ft | 271 kts | 311° |
| 2026-05-06 14:05 | 49.32065 | -2.15774 | 8629 ft | 275 kts | 311° |
| 2026-05-06 14:05 | 49.33346 | -2.17979 | 9583 ft | 277 kts | 311° |
| 2026-05-06 14:06 | 49.34623 | -2.20200 | 10290 ft | 289 kts | 308° |
| 2026-05-06 14:06 | 49.35881 | -2.22759 | 10584 ft | 312 kts | 306° |